Time,TemperatureF,DewpointF,PressureIn,WindDirection,WindDirectionDegrees,WindSpeedMPH,WindSpeedGustMPH,Humidity,HourlyPrecipIn,Conditions,Clouds,dailyrainin,SolarRadiationWatts/m^2,SoftwareType,DateUTC
2013-02-05 00:22:00,35.0,19.0,-100.00,West,273,6.0,16.0,52,0.00,,,0.00,0.000000,,2013-02-05 07:22:00,
2013-02-05 00:32:00,35.0,19.0,-100.00,West,273,6.0,16.0,52,0.00,,,0.00,0.000000,,2013-02-05 07:32:00,
2013-02-05 00:42:00,35.0,19.0,-100.00,West,273,6.0,16.0,52,0.00,,,0.00,0.000000,,2013-02-05 07:42:00,
2013-02-05 00:52:00,35.0,19.0,-100.00,West,273,6.0,16.0,52,0.00,,,0.00,0.000000,,2013-02-05 07:52:00,
2013-02-05 01:21:00,35.0,21.0,-100.00,NW,311,3.0,11.0,57,0.00,,,0.00,0.000000,,2013-02-05 08:21:00,
2013-02-05 01:31:00,35.0,21.0,-100.00,NW,311,3.0,11.0,57,0.00,,,0.00,0.000000,,2013-02-05 08:31:00,
2013-02-05 01:41:00,35.0,21.0,-100.00,NW,311,3.0,11.0,57,0.00,,,0.00,0.000000,,2013-02-05 08:41:00,
2013-02-05 01:52:00,35.0,21.0,-100.00,NW,311,3.0,11.0,57,0.00,,,0.00,0.000000,,2013-02-05 08:52:00,
2013-02-05 02:21:00,35.0,23.0,-100.00,NNW,347,5.0,11.0,60,0.00,,,0.00,0.000000,,2013-02-05 09:21:00,
2013-02-05 02:32:00,35.0,23.0,-100.00,NNW,347,5.0,11.0,60,0.00,,,0.00,0.000000,,2013-02-05 09:32:00,
2013-02-05 02:42:00,35.0,23.0,-100.00,NNW,347,5.0,11.0,60,0.00,,,0.00,0.000000,,2013-02-05 09:42:00,
2013-02-05 02:51:00,35.0,23.0,-100.00,NNW,347,5.0,11.0,60,0.00,,,0.00,0.000000,,2013-02-05 09:51:00,
2013-02-05 03:21:00,34.0,23.0,-100.00,WNW,285,2.0,11.0,64,0.00,,,0.00,0.000000,,2013-02-05 10:21:00,
2013-02-05 03:32:00,34.0,23.0,-100.00,WNW,285,2.0,11.0,64,0.00,,,0.00,0.000000,,2013-02-05 10:32:00,
2013-02-05 03:42:00,34.0,23.0,-100.00,WNW,285,2.0,11.0,64,0.00,,,0.00,0.000000,,2013-02-05 10:42:00,
2013-02-05 03:52:00,34.0,23.0,-100.00,WNW,285,2.0,11.0,64,0.00,,,0.00,0.000000,,2013-02-05 10:52:00,
2013-02-05 04:22:00,33.0,23.0,-100.00,SW,227,2.0,6.0,65,0.00,,,0.00,0.000000,,2013-02-05 11:22:00,
2013-02-05 04:32:00,33.0,23.0,-100.00,SW,227,2.0,6.0,65,0.00,,,0.00,0.000000,,2013-02-05 11:32:00,
2013-02-05 04:42:00,33.0,23.0,-100.00,SW,227,2.0,6.0,65,0.00,,,0.00,0.000000,,2013-02-05 11:42:00,
2013-02-05 04:52:00,33.0,23.0,-100.00,SW,227,2.0,6.0,65,0.00,,,0.00,0.000000,,2013-02-05 11:52:00,
2013-02-05 05:22:00,31.0,23.0,-100.00,SSW,200,3.0,6.0,73,0.00,,,0.00,0.000000,,2013-02-05 12:22:00,
2013-02-05 05:32:00,31.0,23.0,-100.00,SSW,200,3.0,6.0,73,0.00,,,0.00,0.000000,,2013-02-05 12:32:00,
2013-02-05 05:42:00,31.0,23.0,-100.00,SSW,200,3.0,6.0,73,0.00,,,0.00,0.000000,,2013-02-05 12:42:00,
2013-02-05 05:52:00,31.0,23.0,-100.00,SSW,200,3.0,6.0,73,0.00,,,0.00,0.000000,,2013-02-05 12:52:00,
2013-02-05 06:22:00,28.0,23.0,-100.00,South,187,4.0,7.0,80,0.00,,,0.00,0.000000,,2013-02-05 13:22:00,
2013-02-05 06:32:00,28.0,23.0,-100.00,South,187,4.0,7.0,80,0.00,,,0.00,0.000000,,2013-02-05 13:32:00,
2013-02-05 06:42:00,28.0,23.0,-100.00,South,187,4.0,7.0,80,0.00,,,0.00,0.000000,,2013-02-05 13:42:00,
2013-02-05 06:52:00,28.0,23.0,-100.00,South,187,4.0,7.0,80,0.00,,,0.00,0.000000,,2013-02-05 13:52:00,
2013-02-05 07:21:00,29.0,23.0,-100.00,SSW,209,3.0,8.0,79,0.00,,,0.00,1.000000,,2013-02-05 14:21:00,
2013-02-05 07:32:00,29.0,23.0,-100.00,SSW,209,3.0,8.0,79,0.00,,,0.00,1.000000,,2013-02-05 14:32:00,
2013-02-05 07:42:00,29.0,23.0,-100.00,SSW,209,3.0,8.0,79,0.00,,,0.00,1.000000,,2013-02-05 14:42:00,
2013-02-05 07:52:00,29.0,23.0,-100.00,SSW,209,3.0,8.0,79,0.00,,,0.00,1.000000,,2013-02-05 14:52:00,
2013-02-05 08:21:00,29.0,23.0,-100.00,SSE,163,3.0,5.0,78,0.00,,,0.00,12.000000,,2013-02-05 15:21:00,
2013-02-05 08:32:00,29.0,23.0,-100.00,SSE,163,3.0,5.0,78,0.00,,,0.00,12.000000,,2013-02-05 15:32:00,
2013-02-05 08:41:00,29.0,23.0,-100.00,SSE,163,3.0,5.0,78,0.00,,,0.00,12.000000,,2013-02-05 15:41:00,
2013-02-05 08:52:00,29.0,23.0,-100.00,SSE,163,3.0,5.0,78,0.00,,,0.00,12.000000,,2013-02-05 15:52:00,
2013-02-05 09:22:00,34.0,25.0,-100.00,SSE,163,4.0,5.0,68,0.00,,,-99.99,198.000000,,2013-02-05 16:22:00,
2013-02-05 09:32:00,34.0,25.0,-100.00,SSE,163,4.0,5.0,68,0.00,,,-99.99,198.000000,,2013-02-05 16:32:00,
2013-02-05 09:42:00,34.0,25.0,-100.00,SSE,163,4.0,5.0,68,0.00,,,-99.99,198.000000,,2013-02-05 16:42:00,
2013-02-05 09:51:00,34.0,25.0,-100.00,SSE,163,4.0,5.0,68,0.00,,,-99.99,198.000000,,2013-02-05 16:51:00,
2013-02-05 10:22:00,36.0,25.0,-100.00,SSW,198,4.0,6.0,64,0.00,,,-99.99,382.000000,,2013-02-05 17:22:00,
2013-02-05 10:32:00,36.0,25.0,-100.00,SSW,198,4.0,6.0,64,0.00,,,-99.99,382.000000,,2013-02-05 17:32:00,
2013-02-05 10:42:00,36.0,25.0,-100.00,SSW,198,4.0,6.0,64,0.00,,,-99.99,382.000000,,2013-02-05 17:42:00,
2013-02-05 10:52:00,36.0,25.0,-100.00,SSW,198,4.0,6.0,64,0.00,,,-99.99,382.000000,,2013-02-05 17:52:00,
2013-02-05 11:22:00,39.0,25.0,-100.00,SW,215,5.0,8.0,58,0.00,,,0.00,467.000000,,2013-02-05 18:22:00,
2013-02-05 11:32:00,39.0,25.0,-100.00,SW,215,5.0,8.0,58,0.00,,,0.00,467.000000,,2013-02-05 18:32:00,
2013-02-05 11:42:00,39.0,25.0,-100.00,SW,215,5.0,8.0,58,0.00,,,0.00,467.000000,,2013-02-05 18:42:00,
2013-02-05 11:52:00,39.0,25.0,-100.00,SW,215,5.0,8.0,58,0.00,,,0.00,467.000000,,2013-02-05 18:52:00,
2013-02-05 12:21:00,44.0,25.0,-100.00,NW,322,3.0,8.0,46,0.00,,,0.00,582.000000,,2013-02-05 19:21:00,
2013-02-05 12:32:00,44.0,25.0,-100.00,NW,322,3.0,8.0,46,0.00,,,0.00,582.000000,,2013-02-05 19:32:00,
2013-02-05 12:42:00,44.0,25.0,-100.00,NW,322,3.0,8.0,46,0.00,,,0.00,582.000000,,2013-02-05 19:42:00,
2013-02-05 12:52:00,44.0,25.0,-100.00,NW,322,3.0,8.0,46,0.00,,,0.00,582.000000,,2013-02-05 19:52:00,
2013-02-05 13:21:00,42.0,24.0,-100.00,SSW,210,6.0,13.0,49,0.00,,,0.00,556.000000,,2013-02-05 20:21:00,
2013-02-05 13:32:00,42.0,24.0,-100.00,SSW,210,6.0,13.0,49,0.00,,,0.00,556.000000,,2013-02-05 20:32:00,
2013-02-05 13:42:00,42.0,24.0,-100.00,SSW,210,6.0,13.0,49,0.00,,,0.00,556.000000,,2013-02-05 20:42:00,
2013-02-05 13:52:00,42.0,24.0,-100.00,SSW,210,6.0,13.0,49,0.00,,,0.00,556.000000,,2013-02-05 20:52:00,
2013-02-05 14:22:00,45.0,24.0,-100.00,WSW,238,5.0,12.0,44,0.00,,,0.00,416.000000,,2013-02-05 21:22:00,
2013-02-05 14:32:00,45.0,24.0,-100.00,WSW,238,5.0,12.0,44,0.00,,,0.00,416.000000,,2013-02-05 21:32:00,
2013-02-05 14:42:00,45.0,24.0,-100.00,WSW,238,5.0,12.0,44,0.00,,,0.00,416.000000,,2013-02-05 21:42:00,
2013-02-05 14:52:00,45.0,24.0,-100.00,WSW,238,5.0,12.0,44,0.00,,,0.00,416.000000,,2013-02-05 21:52:00,
2013-02-05 15:22:00,43.0,24.0,-100.00,SSW,198,5.0,11.0,47,0.00,,,0.00,318.000000,,2013-02-05 22:22:00,
2013-02-05 15:32:00,43.0,24.0,-100.00,SSW,198,5.0,11.0,47,0.00,,,0.00,318.000000,,2013-02-05 22:32:00,
2013-02-05 15:42:00,43.0,24.0,-100.00,SSW,198,5.0,11.0,47,0.00,,,0.00,318.000000,,2013-02-05 22:42:00,
2013-02-05 15:51:00,43.0,24.0,-100.00,SSW,198,5.0,11.0,47,0.00,,,0.00,318.000000,,2013-02-05 22:51:00,
2013-02-05 16:22:00,44.0,25.0,-100.00,WNW,297,1.0,7.0,46,0.00,,,0.00,116.000000,,2013-02-05 23:22:00,
2013-02-05 16:32:00,44.0,25.0,-100.00,WNW,297,1.0,7.0,46,0.00,,,0.00,116.000000,,2013-02-05 23:32:00,
2013-02-05 16:42:00,44.0,25.0,-100.00,WNW,297,1.0,7.0,46,0.00,,,0.00,116.000000,,2013-02-05 23:42:00,
2013-02-05 16:52:00,44.0,25.0,-100.00,WNW,297,1.0,7.0,46,0.00,,,0.00,116.000000,,2013-02-05 23:52:00,
2013-02-05 17:22:00,41.0,24.0,-100.00,NNE,31,1.0,3.0,50,0.00,,,0.00,43.000000,,2013-02-06 00:22:00,
2013-02-05 17:32:00,41.0,24.0,-100.00,NNE,31,1.0,3.0,50,0.00,,,0.00,43.000000,,2013-02-06 00:32:00,
2013-02-05 17:42:00,41.0,24.0,-100.00,NNE,31,1.0,3.0,50,0.00,,,0.00,43.000000,,2013-02-06 00:42:00,
2013-02-05 17:52:00,41.0,24.0,-100.00,NNE,31,1.0,3.0,50,0.00,,,0.00,43.000000,,2013-02-06 00:52:00,
2013-02-05 18:22:00,40.0,23.0,-100.00,South,173,2.0,4.0,50,0.00,,,0.00,3.000000,,2013-02-06 01:22:00,
2013-02-05 18:32:00,40.0,23.0,-100.00,South,173,2.0,4.0,50,0.00,,,0.00,3.000000,,2013-02-06 01:32:00,
2013-02-05 18:42:00,40.0,23.0,-100.00,South,173,2.0,4.0,50,0.00,,,0.00,3.000000,,2013-02-06 01:42:00,
2013-02-05 18:52:00,40.0,23.0,-100.00,South,173,2.0,4.0,50,0.00,,,0.00,3.000000,,2013-02-06 01:52:00,
2013-02-05 19:22:00,40.0,21.0,-100.00,South,187,3.0,6.0,47,0.00,,,0.00,0.000000,,2013-02-06 02:22:00,
2013-02-05 19:32:00,40.0,21.0,-100.00,South,187,3.0,6.0,47,0.00,,,0.00,0.000000,,2013-02-06 02:32:00,
2013-02-05 19:42:00,40.0,21.0,-100.00,South,187,3.0,6.0,47,0.00,,,0.00,0.000000,,2013-02-06 02:42:00,
2013-02-05 19:52:00,40.0,21.0,-100.00,South,187,3.0,6.0,47,0.00,,,0.00,0.000000,,2013-02-06 02:52:00,
2013-02-05 20:22:00,40.0,22.0,-100.00,East,100,3.0,9.0,48,0.00,,,0.00,0.000000,,2013-02-06 03:22:00,
2013-02-05 20:32:00,40.0,22.0,-100.00,East,100,3.0,9.0,48,0.00,,,0.00,0.000000,,2013-02-06 03:32:00,
2013-02-05 20:42:00,40.0,22.0,-100.00,East,100,3.0,9.0,48,0.00,,,0.00,0.000000,,2013-02-06 03:42:00,
2013-02-05 20:52:00,40.0,22.0,-100.00,East,100,3.0,9.0,48,0.00,,,0.00,0.000000,,2013-02-06 03:52:00,
2013-02-05 21:21:00,38.0,22.0,-100.00,ENE,58,2.0,5.0,52,0.00,,,0.00,0.000000,,2013-02-06 04:21:00,
2013-02-05 21:32:00,38.0,22.0,-100.00,ENE,58,2.0,5.0,52,0.00,,,0.00,0.000000,,2013-02-06 04:32:00,
2013-02-05 21:42:00,38.0,22.0,-100.00,ENE,58,2.0,5.0,52,0.00,,,0.00,0.000000,,2013-02-06 04:42:00,
2013-02-05 21:51:00,38.0,22.0,-100.00,ENE,58,2.0,5.0,52,0.00,,,0.00,0.000000,,2013-02-06 04:51:00,
2013-02-05 22:22:00,38.0,21.0,-100.00,SE,128,2.0,4.0,49,0.00,,,0.00,0.000000,,2013-02-06 05:22:00,
2013-02-05 22:32:00,38.0,21.0,-100.00,SE,128,2.0,4.0,49,0.00,,,0.00,0.000000,,2013-02-06 05:32:00,
2013-02-05 22:41:00,38.0,21.0,-100.00,SE,128,2.0,4.0,49,0.00,,,0.00,0.000000,,2013-02-06 05:41:00,
2013-02-05 22:52:00,38.0,21.0,-100.00,SE,128,2.0,4.0,49,0.00,,,0.00,0.000000,,2013-02-06 05:52:00,
2013-02-05 23:21:00,36.0,21.0,-100.00,North,9,3.0,4.0,55,0.00,,,0.00,0.000000,,2013-02-06 06:21:00,
2013-02-05 23:32:00,36.0,21.0,-100.00,North,9,3.0,4.0,55,0.00,,,0.00,0.000000,,2013-02-06 06:32:00,
2013-02-05 23:42:00,36.0,21.0,-100.00,North,9,3.0,4.0,55,0.00,,,0.00,0.000000,,2013-02-06 06:42:00,
2013-02-05 23:51:00,36.0,21.0,-100.00,North,9,3.0,4.0,55,0.00,,,0.00,0.000000,,2013-02-06 06:51:00,